sensor_id;sensor_type;location;lat;lon;timestamp;P1;durP1;ratioP1;P2;durP2;ratioP2
10450;SDS011;5273;51.290;6.918;2023-05-07T00:02:26;4.80;;;3.10;;
10450;SDS011;5273;51.290;6.918;2023-05-07T00:04:54;8.70;;;3.08;;
10450;SDS011;5273;51.290;6.918;2023-05-07T00:07:21;4.10;;;3.10;;
10450;SDS011;5273;51.290;6.918;2023-05-07T00:09:48;7.53;;;3.08;;
10450;SDS011;5273;51.290;6.918;2023-05-07T00:12:15;3.60;;;2.90;;
10450;SDS011;5273;51.290;6.918;2023-05-07T00:14:41;4.03;;;2.88;;
10450;SDS011;5273;51.290;6.918;2023-05-07T00:17:08;3.42;;;3.13;;
10450;SDS011;5273;51.290;6.918;2023-05-07T00:19:35;5.68;;;3.00;;
10450;SDS011;5273;51.290;6.918;2023-05-07T00:22:03;4.68;;;3.10;;
10450;SDS011;5273;51.290;6.918;2023-05-07T00:24:30;3.30;;;2.80;;
10450;SDS011;5273;51.290;6.918;2023-05-07T00:26:57;3.13;;;2.65;;
10450;SDS011;5273;51.290;6.918;2023-05-07T00:29:24;4.47;;;3.20;;
10450;SDS011;5273;51.290;6.918;2023-05-07T00:31:50;3.22;;;2.90;;
10450;SDS011;5273;51.290;6.918;2023-05-07T00:34:18;6.03;;;3.15;;
10450;SDS011;5273;51.290;6.918;2023-05-07T00:36:45;3.65;;;2.60;;
10450;SDS011;5273;51.290;6.918;2023-05-07T00:39:13;4.68;;;2.83;;
10450;SDS011;5273;51.290;6.918;2023-05-07T00:41:40;7.43;;;3.03;;
10450;SDS011;5273;51.290;6.918;2023-05-07T00:44:07;3.50;;;3.03;;
10450;SDS011;5273;51.290;6.918;2023-05-07T00:46:34;3.83;;;2.92;;
10450;SDS011;5273;51.290;6.918;2023-05-07T00:49:01;3.38;;;3.08;;
10450;SDS011;5273;51.290;6.918;2023-05-07T00:51:28;5.93;;;3.55;;
10450;SDS011;5273;51.290;6.918;2023-05-07T00:53:56;5.55;;;3.05;;
10450;SDS011;5273;51.290;6.918;2023-05-07T00:56:24;4.40;;;3.30;;
10450;SDS011;5273;51.290;6.918;2023-05-07T00:58:51;8.40;;;3.38;;
10450;SDS011;5273;51.290;6.918;2023-05-07T01:01:18;7.25;;;3.38;;
10450;SDS011;5273;51.290;6.918;2023-05-07T01:03:45;7.32;;;3.88;;
10450;SDS011;5273;51.290;6.918;2023-05-07T01:06:11;6.75;;;3.30;;
10450;SDS011;5273;51.290;6.918;2023-05-07T01:08:41;3.65;;;3.05;;
10450;SDS011;5273;51.290;6.918;2023-05-07T01:11:08;4.35;;;3.28;;
10450;SDS011;5273;51.290;6.918;2023-05-07T01:13:38;4.63;;;3.00;;
10450;SDS011;5273;51.290;6.918;2023-05-07T01:16:05;3.53;;;3.22;;
10450;SDS011;5273;51.290;6.918;2023-05-07T01:18:32;6.97;;;3.42;;
10450;SDS011;5273;51.290;6.918;2023-05-07T01:20:59;4.45;;;3.30;;
10450;SDS011;5273;51.290;6.918;2023-05-07T01:23:31;4.18;;;3.10;;
10450;SDS011;5273;51.290;6.918;2023-05-07T01:26:00;5.32;;;3.10;;
10450;SDS011;5273;51.290;6.918;2023-05-07T01:28:27;5.57;;;2.80;;
10450;SDS011;5273;51.290;6.918;2023-05-07T01:30:54;5.53;;;3.03;;
10450;SDS011;5273;51.290;6.918;2023-05-07T01:33:26;4.05;;;2.83;;
10450;SDS011;5273;51.290;6.918;2023-05-07T01:35:57;3.75;;;2.90;;
10450;SDS011;5273;51.290;6.918;2023-05-07T01:38:27;3.03;;;2.65;;
10450;SDS011;5273;51.290;6.918;2023-05-07T01:40:57;2.80;;;2.47;;
10450;SDS011;5273;51.290;6.918;2023-05-07T01:43:24;2.88;;;2.60;;
10450;SDS011;5273;51.290;6.918;2023-05-07T01:45:51;4.38;;;3.05;;
10450;SDS011;5273;51.290;6.918;2023-05-07T01:48:19;4.72;;;2.42;;
10450;SDS011;5273;51.290;6.918;2023-05-07T01:50:46;4.75;;;3.13;;
10450;SDS011;5273;51.290;6.918;2023-05-07T01:53:13;6.13;;;2.70;;
10450;SDS011;5273;51.290;6.918;2023-05-07T01:55:40;3.72;;;2.88;;
10450;SDS011;5273;51.290;6.918;2023-05-07T01:58:08;4.75;;;2.72;;
10450;SDS011;5273;51.290;6.918;2023-05-07T02:00:35;5.93;;;2.97;;
10450;SDS011;5273;51.290;6.918;2023-05-07T02:03:02;6.32;;;2.80;;
10450;SDS011;5273;51.290;6.918;2023-05-07T02:05:29;5.47;;;2.75;;
10450;SDS011;5273;51.290;6.918;2023-05-07T02:07:56;5.80;;;3.00;;
10450;SDS011;5273;51.290;6.918;2023-05-07T02:10:23;7.18;;;3.13;;
10450;SDS011;5273;51.290;6.918;2023-05-07T02:12:50;8.25;;;3.00;;
10450;SDS011;5273;51.290;6.918;2023-05-07T02:15:18;3.55;;;2.55;;
10450;SDS011;5273;51.290;6.918;2023-05-07T02:17:57;5.85;;;2.45;;
10450;SDS011;5273;51.290;6.918;2023-05-07T02:20:25;2.90;;;2.20;;
10450;SDS011;5273;51.290;6.918;2023-05-07T02:22:52;2.85;;;2.28;;
10450;SDS011;5273;51.290;6.918;2023-05-07T02:25:18;4.10;;;2.13;;
10450;SDS011;5273;51.290;6.918;2023-05-07T02:27:45;2.78;;;1.90;;
10450;SDS011;5273;51.290;6.918;2023-05-07T02:30:13;5.72;;;2.42;;
10450;SDS011;5273;51.290;6.918;2023-05-07T02:32:41;5.30;;;2.05;;
10450;SDS011;5273;51.290;6.918;2023-05-07T02:35:08;2.85;;;2.10;;
10450;SDS011;5273;51.290;6.918;2023-05-07T02:37:35;2.63;;;1.90;;
10450;SDS011;5273;51.290;6.918;2023-05-07T02:40:02;7.45;;;2.25;;
10450;SDS011;5273;51.290;6.918;2023-05-07T02:42:29;3.35;;;2.30;;
10450;SDS011;5273;51.290;6.918;2023-05-07T02:44:56;3.47;;;2.00;;
10450;SDS011;5273;51.290;6.918;2023-05-07T02:47:24;2.30;;;1.92;;
10450;SDS011;5273;51.290;6.918;2023-05-07T02:49:53;2.70;;;2.10;;
10450;SDS011;5273;51.290;6.918;2023-05-07T02:52:20;2.28;;;2.08;;
10450;SDS011;5273;51.290;6.918;2023-05-07T02:54:47;5.05;;;1.90;;
10450;SDS011;5273;51.290;6.918;2023-05-07T02:57:14;4.00;;;1.80;;
10450;SDS011;5273;51.290;6.918;2023-05-07T02:59:41;5.90;;;2.42;;
10450;SDS011;5273;51.290;6.918;2023-05-07T03:02:08;3.50;;;1.80;;
10450;SDS011;5273;51.290;6.918;2023-05-07T03:04:35;2.38;;;1.98;;
10450;SDS011;5273;51.290;6.918;2023-05-07T03:07:04;10.80;;;2.10;;
10450;SDS011;5273;51.290;6.918;2023-05-07T03:09:30;2.45;;;2.10;;
10450;SDS011;5273;51.290;6.918;2023-05-07T03:11:57;4.90;;;2.28;;
10450;SDS011;5273;51.290;6.918;2023-05-07T03:14:24;3.40;;;2.20;;
10450;SDS011;5273;51.290;6.918;2023-05-07T03:16:51;4.72;;;2.33;;
10450;SDS011;5273;51.290;6.918;2023-05-07T03:19:18;4.50;;;2.20;;
10450;SDS011;5273;51.290;6.918;2023-05-07T03:21:44;3.53;;;2.25;;
10450;SDS011;5273;51.290;6.918;2023-05-07T03:24:12;5.70;;;1.75;;
10450;SDS011;5273;51.290;6.918;2023-05-07T03:26:39;2.90;;;1.88;;
10450;SDS011;5273;51.290;6.918;2023-05-07T03:29:06;3.97;;;2.13;;
10450;SDS011;5273;51.290;6.918;2023-05-07T03:31:33;2.30;;;1.70;;
10450;SDS011;5273;51.290;6.918;2023-05-07T03:34:00;2.35;;;1.90;;
10450;SDS011;5273;51.290;6.918;2023-05-07T03:36:26;4.35;;;2.10;;
10450;SDS011;5273;51.290;6.918;2023-05-07T03:38:53;4.88;;;2.10;;
10450;SDS011;5273;51.290;6.918;2023-05-07T03:41:21;3.88;;;2.22;;
10450;SDS011;5273;51.290;6.918;2023-05-07T03:43:48;3.42;;;2.08;;
10450;SDS011;5273;51.290;6.918;2023-05-07T03:46:15;2.67;;;1.83;;
10450;SDS011;5273;51.290;6.918;2023-05-07T03:48:42;5.40;;;2.15;;
10450;SDS011;5273;51.290;6.918;2023-05-07T03:51:08;4.53;;;2.30;;
10450;SDS011;5273;51.290;6.918;2023-05-07T03:53:35;2.72;;;2.20;;
10450;SDS011;5273;51.290;6.918;2023-05-07T03:56:02;3.03;;;2.00;;
10450;SDS011;5273;51.290;6.918;2023-05-07T03:58:31;5.20;;;2.33;;
10450;SDS011;5273;51.290;6.918;2023-05-07T04:00:57;5.10;;;2.35;;
10450;SDS011;5273;51.290;6.918;2023-05-07T04:03:24;5.22;;;2.80;;
10450;SDS011;5273;51.290;6.918;2023-05-07T04:05:51;3.88;;;2.35;;
10450;SDS011;5273;51.290;6.918;2023-05-07T04:08:18;4.70;;;2.38;;
10450;SDS011;5273;51.290;6.918;2023-05-07T04:10:44;3.80;;;2.58;;
10450;SDS011;5273;51.290;6.918;2023-05-07T04:13:11;6.93;;;2.50;;
10450;SDS011;5273;51.290;6.918;2023-05-07T04:15:40;4.53;;;2.65;;
10450;SDS011;5273;51.290;6.918;2023-05-07T04:18:07;2.78;;;2.20;;
10450;SDS011;5273;51.290;6.918;2023-05-07T04:20:33;4.95;;;2.25;;
10450;SDS011;5273;51.290;6.918;2023-05-07T04:23:01;3.17;;;2.67;;
10450;SDS011;5273;51.290;6.918;2023-05-07T04:25:28;3.72;;;2.25;;
10450;SDS011;5273;51.290;6.918;2023-05-07T04:27:55;5.95;;;2.55;;
10450;SDS011;5273;51.290;6.918;2023-05-07T04:30:22;3.67;;;2.35;;
10450;SDS011;5273;51.290;6.918;2023-05-07T04:32:50;2.95;;;2.13;;
10450;SDS011;5273;51.290;6.918;2023-05-07T04:35:17;6.55;;;2.00;;
10450;SDS011;5273;51.290;6.918;2023-05-07T04:37:45;2.53;;;2.03;;
10450;SDS011;5273;51.290;6.918;2023-05-07T04:40:11;5.45;;;2.35;;
10450;SDS011;5273;51.290;6.918;2023-05-07T04:42:38;2.78;;;1.92;;
10450;SDS011;5273;51.290;6.918;2023-05-07T04:45:05;3.25;;;2.53;;
10450;SDS011;5273;51.290;6.918;2023-05-07T04:47:33;5.13;;;2.17;;
10450;SDS011;5273;51.290;6.918;2023-05-07T04:50:02;4.68;;;2.55;;
10450;SDS011;5273;51.290;6.918;2023-05-07T04:52:28;5.20;;;2.00;;
10450;SDS011;5273;51.290;6.918;2023-05-07T04:54:56;2.42;;;2.22;;
10450;SDS011;5273;51.290;6.918;2023-05-07T04:57:25;2.88;;;1.92;;
10450;SDS011;5273;51.290;6.918;2023-05-07T04:59:51;4.43;;;2.28;;
10450;SDS011;5273;51.290;6.918;2023-05-07T05:02:18;3.75;;;2.72;;
10450;SDS011;5273;51.290;6.918;2023-05-07T05:04:45;5.80;;;2.45;;
10450;SDS011;5273;51.290;6.918;2023-05-07T05:07:13;3.83;;;2.10;;
10450;SDS011;5273;51.290;6.918;2023-05-07T05:09:40;3.15;;;2.33;;
10450;SDS011;5273;51.290;6.918;2023-05-07T05:12:07;4.35;;;2.50;;
10450;SDS011;5273;51.290;6.918;2023-05-07T05:14:34;5.57;;;2.45;;
10450;SDS011;5273;51.290;6.918;2023-05-07T05:17:01;3.88;;;2.47;;
10450;SDS011;5273;51.290;6.918;2023-05-07T05:19:28;8.95;;;2.75;;
10450;SDS011;5273;51.290;6.918;2023-05-07T05:21:55;5.30;;;2.40;;
10450;SDS011;5273;51.290;6.918;2023-05-07T05:24:23;2.28;;;1.80;;
10450;SDS011;5273;51.290;6.918;2023-05-07T05:26:51;2.15;;;1.92;;
10450;SDS011;5273;51.290;6.918;2023-05-07T05:29:19;3.67;;;2.15;;
10450;SDS011;5273;51.290;6.918;2023-05-07T05:31:46;4.75;;;2.90;;
10450;SDS011;5273;51.290;6.918;2023-05-07T05:34:13;4.88;;;2.47;;
10450;SDS011;5273;51.290;6.918;2023-05-07T05:36:40;2.63;;;2.22;;
10450;SDS011;5273;51.290;6.918;2023-05-07T05:39:07;3.67;;;2.30;;
10450;SDS011;5273;51.290;6.918;2023-05-07T05:41:35;5.22;;;2.25;;
10450;SDS011;5273;51.290;6.918;2023-05-07T05:44:02;3.65;;;1.85;;
10450;SDS011;5273;51.290;6.918;2023-05-07T05:46:29;2.65;;;2.10;;
10450;SDS011;5273;51.290;6.918;2023-05-07T05:48:56;2.92;;;2.00;;
10450;SDS011;5273;51.290;6.918;2023-05-07T05:51:23;3.97;;;2.00;;
10450;SDS011;5273;51.290;6.918;2023-05-07T05:53:50;2.92;;;1.90;;
10450;SDS011;5273;51.290;6.918;2023-05-07T05:56:16;1.90;;;1.60;;
10450;SDS011;5273;51.290;6.918;2023-05-07T05:58:45;2.10;;;1.90;;
10450;SDS011;5273;51.290;6.918;2023-05-07T06:01:12;2.63;;;1.73;;
10450;SDS011;5273;51.290;6.918;2023-05-07T06:03:39;3.03;;;1.70;;
10450;SDS011;5273;51.290;6.918;2023-05-07T06:06:06;2.00;;;1.90;;
10450;SDS011;5273;51.290;6.918;2023-05-07T06:08:33;3.20;;;1.92;;
10450;SDS011;5273;51.290;6.918;2023-05-07T06:10:59;2.45;;;2.08;;
10450;SDS011;5273;51.290;6.918;2023-05-07T06:13:28;2.50;;;2.00;;
10450;SDS011;5273;51.290;6.918;2023-05-07T06:15:56;4.13;;;2.00;;
10450;SDS011;5273;51.290;6.918;2023-05-07T06:18:23;1.88;;;1.77;;
10450;SDS011;5273;51.290;6.918;2023-05-07T06:20:50;6.30;;;1.83;;
10450;SDS011;5273;51.290;6.918;2023-05-07T06:23:17;2.10;;;1.90;;
10450;SDS011;5273;51.290;6.918;2023-05-07T06:25:47;1.70;;;1.60;;
10450;SDS011;5273;51.290;6.918;2023-05-07T06:28:15;1.95;;;1.73;;
10450;SDS011;5273;51.290;6.918;2023-05-07T06:30:41;3.38;;;1.60;;
10450;SDS011;5273;51.290;6.918;2023-05-07T06:33:10;2.05;;;1.60;;
10450;SDS011;5273;51.290;6.918;2023-05-07T06:35:36;4.70;;;2.95;;
10450;SDS011;5273;51.290;6.918;2023-05-07T06:38:03;4.95;;;1.67;;
10450;SDS011;5273;51.290;6.918;2023-05-07T06:40:30;3.85;;;1.65;;
10450;SDS011;5273;51.290;6.918;2023-05-07T06:42:57;1.77;;;1.67;;
10450;SDS011;5273;51.290;6.918;2023-05-07T06:45:23;3.78;;;1.90;;
10450;SDS011;5273;51.290;6.918;2023-05-07T06:47:50;6.57;;;1.80;;
10450;SDS011;5273;51.290;6.918;2023-05-07T06:50:19;1.98;;;1.75;;
10450;SDS011;5273;51.290;6.918;2023-05-07T06:52:46;2.40;;;1.95;;
10450;SDS011;5273;51.290;6.918;2023-05-07T06:55:13;2.55;;;1.70;;
10450;SDS011;5273;51.290;6.918;2023-05-07T06:57:39;2.35;;;1.88;;
10450;SDS011;5273;51.290;6.918;2023-05-07T07:00:07;1.75;;;1.63;;
10450;SDS011;5273;51.290;6.918;2023-05-07T07:02:34;2.95;;;1.70;;
10450;SDS011;5273;51.290;6.918;2023-05-07T07:05:02;3.00;;;1.70;;
10450;SDS011;5273;51.290;6.918;2023-05-07T07:07:30;2.25;;;1.75;;
10450;SDS011;5273;51.290;6.918;2023-05-07T07:09:57;2.10;;;1.65;;
10450;SDS011;5273;51.290;6.918;2023-05-07T07:12:24;2.45;;;1.92;;
10450;SDS011;5273;51.290;6.918;2023-05-07T07:14:51;2.85;;;1.70;;
10450;SDS011;5273;51.290;6.918;2023-05-07T07:17:17;1.88;;;1.67;;
10450;SDS011;5273;51.290;6.918;2023-05-07T07:19:44;2.38;;;1.60;;
10450;SDS011;5273;51.290;6.918;2023-05-07T07:22:11;3.10;;;1.60;;
10450;SDS011;5273;51.290;6.918;2023-05-07T07:24:39;1.75;;;1.65;;
10450;SDS011;5273;51.290;6.918;2023-05-07T07:27:06;2.45;;;1.48;;
10450;SDS011;5273;51.290;6.918;2023-05-07T07:29:32;1.55;;;1.45;;
10450;SDS011;5273;51.290;6.918;2023-05-07T07:31:59;2.15;;;1.50;;
10450;SDS011;5273;51.290;6.918;2023-05-07T07:34:26;2.40;;;1.60;;
10450;SDS011;5273;51.290;6.918;2023-05-07T07:36:53;2.42;;;1.70;;
10450;SDS011;5273;51.290;6.918;2023-05-07T07:39:20;2.22;;;1.70;;
10450;SDS011;5273;51.290;6.918;2023-05-07T07:41:48;2.42;;;1.58;;
10450;SDS011;5273;51.290;6.918;2023-05-07T07:44:14;1.90;;;1.42;;
10450;SDS011;5273;51.290;6.918;2023-05-07T07:46:42;1.40;;;1.30;;
10450;SDS011;5273;51.290;6.918;2023-05-07T07:49:09;3.58;;;1.40;;
10450;SDS011;5273;51.290;6.918;2023-05-07T07:51:35;1.83;;;1.30;;
10450;SDS011;5273;51.290;6.918;2023-05-07T07:54:02;2.28;;;1.50;;
10450;SDS011;5273;51.290;6.918;2023-05-07T07:56:29;1.83;;;1.40;;
10450;SDS011;5273;51.290;6.918;2023-05-07T07:58:59;1.75;;;1.52;;
10450;SDS011;5273;51.290;6.918;2023-05-07T08:01:26;2.05;;;1.83;;
10450;SDS011;5273;51.290;6.918;2023-05-07T08:03:53;1.85;;;1.58;;
10450;SDS011;5273;51.290;6.918;2023-05-07T08:06:19;2.10;;;1.50;;
10450;SDS011;5273;51.290;6.918;2023-05-07T08:08:46;2.22;;;1.42;;
10450;SDS011;5273;51.290;6.918;2023-05-07T08:11:13;2.92;;;1.67;;
10450;SDS011;5273;51.290;6.918;2023-05-07T08:13:40;1.85;;;1.55;;
10450;SDS011;5273;51.290;6.918;2023-05-07T08:16:08;1.63;;;1.52;;
10450;SDS011;5273;51.290;6.918;2023-05-07T08:18:35;1.67;;;1.58;;
10450;SDS011;5273;51.290;6.918;2023-05-07T08:21:02;2.75;;;1.52;;
10450;SDS011;5273;51.290;6.918;2023-05-07T08:23:29;1.70;;;1.40;;
10450;SDS011;5273;51.290;6.918;2023-05-07T08:25:56;2.80;;;1.48;;
10450;SDS011;5273;51.290;6.918;2023-05-07T08:28:24;1.45;;;1.35;;
10450;SDS011;5273;51.290;6.918;2023-05-07T08:30:50;2.15;;;1.38;;
10450;SDS011;5273;51.290;6.918;2023-05-07T08:33:18;2.10;;;1.60;;
10450;SDS011;5273;51.290;6.918;2023-05-07T08:35:45;2.88;;;1.55;;
10450;SDS011;5273;51.290;6.918;2023-05-07T08:38:12;2.00;;;1.65;;
10450;SDS011;5273;51.290;6.918;2023-05-07T08:40:39;1.90;;;1.35;;
10450;SDS011;5273;51.290;6.918;2023-05-07T08:43:06;1.77;;;1.40;;
10450;SDS011;5273;51.290;6.918;2023-05-07T08:45:34;2.85;;;1.45;;
10450;SDS011;5273;51.290;6.918;2023-05-07T08:48:01;3.17;;;1.38;;
10450;SDS011;5273;51.290;6.918;2023-05-07T08:50:31;2.50;;;1.52;;
10450;SDS011;5273;51.290;6.918;2023-05-07T08:53:02;2.20;;;1.38;;
10450;SDS011;5273;51.290;6.918;2023-05-07T08:55:29;1.73;;;1.33;;
10450;SDS011;5273;51.290;6.918;2023-05-07T08:57:56;1.65;;;1.55;;
10450;SDS011;5273;51.290;6.918;2023-05-07T09:00:38;1.70;;;1.60;;
10450;SDS011;5273;51.290;6.918;2023-05-07T09:03:07;1.95;;;1.73;;
10450;SDS011;5273;51.290;6.918;2023-05-07T09:05:37;2.00;;;1.60;;
10450;SDS011;5273;51.290;6.918;2023-05-07T09:08:05;4.00;;;1.33;;
10450;SDS011;5273;51.290;6.918;2023-05-07T09:10:33;2.13;;;1.52;;
10450;SDS011;5273;51.290;6.918;2023-05-07T09:13:00;1.50;;;1.40;;
10450;SDS011;5273;51.290;6.918;2023-05-07T09:15:27;1.77;;;1.38;;
10450;SDS011;5273;51.290;6.918;2023-05-07T09:17:57;2.45;;;1.30;;
10450;SDS011;5273;51.290;6.918;2023-05-07T09:20:26;2.42;;;1.45;;
10450;SDS011;5273;51.290;6.918;2023-05-07T09:22:56;1.73;;;1.45;;
10450;SDS011;5273;51.290;6.918;2023-05-07T09:25:27;2.85;;;1.65;;
10450;SDS011;5273;51.290;6.918;2023-05-07T09:27:55;1.80;;;1.70;;
10450;SDS011;5273;51.290;6.918;2023-05-07T09:30:22;2.40;;;1.45;;
10450;SDS011;5273;51.290;6.918;2023-05-07T09:32:48;3.70;;;1.50;;
10450;SDS011;5273;51.290;6.918;2023-05-07T09:35:17;2.33;;;1.40;;
10450;SDS011;5273;51.290;6.918;2023-05-07T09:37:46;1.52;;;1.40;;
10450;SDS011;5273;51.290;6.918;2023-05-07T09:40:19;1.85;;;1.25;;
10450;SDS011;5273;51.290;6.918;2023-05-07T09:42:47;2.17;;;1.58;;
10450;SDS011;5273;51.290;6.918;2023-05-07T09:45:14;2.75;;;1.50;;
10450;SDS011;5273;51.290;6.918;2023-05-07T09:47:41;2.65;;;1.30;;
10450;SDS011;5273;51.290;6.918;2023-05-07T09:50:10;2.20;;;1.50;;
10450;SDS011;5273;51.290;6.918;2023-05-07T09:52:40;2.53;;;1.50;;
10450;SDS011;5273;51.290;6.918;2023-05-07T09:55:07;2.15;;;1.38;;
10450;SDS011;5273;51.290;6.918;2023-05-07T09:57:35;2.17;;;1.77;;
10450;SDS011;5273;51.290;6.918;2023-05-07T10:00:04;1.77;;;1.30;;
10450;SDS011;5273;51.290;6.918;2023-05-07T10:02:33;3.05;;;1.48;;
10450;SDS011;5273;51.290;6.918;2023-05-07T10:05:02;3.25;;;1.50;;
10450;SDS011;5273;51.290;6.918;2023-05-07T10:07:30;2.25;;;1.48;;
10450;SDS011;5273;51.290;6.918;2023-05-07T10:09:58;2.65;;;1.30;;
10450;SDS011;5273;51.290;6.918;2023-05-07T10:12:25;2.53;;;1.33;;
10450;SDS011;5273;51.290;6.918;2023-05-07T10:14:53;1.50;;;1.40;;
10450;SDS011;5273;51.290;6.918;2023-05-07T10:17:21;1.73;;;1.30;;
10450;SDS011;5273;51.290;6.918;2023-05-07T10:19:49;1.40;;;1.30;;
10450;SDS011;5273;51.290;6.918;2023-05-07T10:22:19;3.22;;;1.50;;
10450;SDS011;5273;51.290;6.918;2023-05-07T10:24:47;2.63;;;1.63;;
10450;SDS011;5273;51.290;6.918;2023-05-07T10:27:19;1.63;;;1.30;;
10450;SDS011;5273;51.290;6.918;2023-05-07T10:29:49;2.80;;;1.45;;
10450;SDS011;5273;51.290;6.918;2023-05-07T10:35:13;1.45;;;1.35;;
10450;SDS011;5273;51.290;6.918;2023-05-07T10:37:42;2.42;;;1.20;;
10450;SDS011;5273;51.290;6.918;2023-05-07T10:40:11;2.25;;;1.70;;
10450;SDS011;5273;51.290;6.918;2023-05-07T10:42:40;3.03;;;1.35;;
10450;SDS011;5273;51.290;6.918;2023-05-07T10:45:21;2.08;;;1.33;;
10450;SDS011;5273;51.290;6.918;2023-05-07T10:50:38;1.50;;;1.40;;
10450;SDS011;5273;51.290;6.918;2023-05-07T10:53:24;3.05;;;1.30;;
10450;SDS011;5273;51.290;6.918;2023-05-07T10:58:53;1.40;;;1.30;;
10450;SDS011;5273;51.290;6.918;2023-05-07T11:04:17;1.35;;;1.00;;
10450;SDS011;5273;51.290;6.918;2023-05-07T11:09:59;2.15;;;1.40;;
10450;SDS011;5273;51.290;6.918;2023-05-07T11:18:08;2.42;;;1.15;;
10450;SDS011;5273;51.290;6.918;2023-05-07T11:20:55;1.85;;;1.30;;
10450;SDS011;5273;51.290;6.918;2023-05-07T11:26:23;1.85;;;1.25;;
10450;SDS011;5273;51.290;6.918;2023-05-07T11:28:50;1.30;;;1.15;;
10450;SDS011;5273;51.290;6.918;2023-05-07T11:31:21;2.28;;;1.20;;
10450;SDS011;5273;51.290;6.918;2023-05-07T11:33:51;2.85;;;1.40;;
10450;SDS011;5273;51.290;6.918;2023-05-07T11:36:18;1.85;;;1.38;;
10450;SDS011;5273;51.290;6.918;2023-05-07T11:38:46;2.67;;;1.30;;
10450;SDS011;5273;51.290;6.918;2023-05-07T11:41:12;1.33;;;1.15;;
10450;SDS011;5273;51.290;6.918;2023-05-07T11:43:53;1.60;;;1.48;;
10450;SDS011;5273;51.290;6.918;2023-05-07T11:46:25;2.97;;;1.52;;
10450;SDS011;5273;51.290;6.918;2023-05-07T11:48:53;1.45;;;1.35;;
10450;SDS011;5273;51.290;6.918;2023-05-07T11:51:21;3.38;;;1.83;;
10450;SDS011;5273;51.290;6.918;2023-05-07T11:53:50;3.45;;;1.40;;
10450;SDS011;5273;51.290;6.918;2023-05-07T11:56:18;2.58;;;1.65;;
10450;SDS011;5273;51.290;6.918;2023-05-07T11:58:46;1.73;;;1.63;;
10450;SDS011;5273;51.290;6.918;2023-05-07T12:01:14;4.13;;;1.50;;
10450;SDS011;5273;51.290;6.918;2023-05-07T12:03:45;2.80;;;1.45;;
10450;SDS011;5273;51.290;6.918;2023-05-07T12:06:12;1.63;;;1.52;;
10450;SDS011;5273;51.290;6.918;2023-05-07T12:08:41;2.33;;;2.00;;
10450;SDS011;5273;51.290;6.918;2023-05-07T12:11:09;1.63;;;1.52;;
10450;SDS011;5273;51.290;6.918;2023-05-07T12:13:38;1.30;;;1.20;;
10450;SDS011;5273;51.290;6.918;2023-05-07T12:16:05;3.00;;;2.22;;
10450;SDS011;5273;51.290;6.918;2023-05-07T12:18:33;2.65;;;1.50;;
10450;SDS011;5273;51.290;6.918;2023-05-07T12:21:02;3.97;;;1.77;;
10450;SDS011;5273;51.290;6.918;2023-05-07T12:23:31;2.05;;;1.90;;
10450;SDS011;5273;51.290;6.918;2023-05-07T12:25:58;2.30;;;1.90;;
10450;SDS011;5273;51.290;6.918;2023-05-07T12:28:25;2.53;;;2.00;;
10450;SDS011;5273;51.290;6.918;2023-05-07T12:30:52;2.85;;;1.90;;
10450;SDS011;5273;51.290;6.918;2023-05-07T12:33:23;2.97;;;1.88;;
10450;SDS011;5273;51.290;6.918;2023-05-07T12:35:52;5.32;;;1.90;;
10450;SDS011;5273;51.290;6.918;2023-05-07T12:38:21;3.58;;;1.95;;
10450;SDS011;5273;51.290;6.918;2023-05-07T12:40:49;4.03;;;2.22;;
10450;SDS011;5273;51.290;6.918;2023-05-07T12:43:19;3.40;;;2.00;;
10450;SDS011;5273;51.290;6.918;2023-05-07T12:45:48;3.22;;;2.28;;
10450;SDS011;5273;51.290;6.918;2023-05-07T12:48:16;2.80;;;2.00;;
10450;SDS011;5273;51.290;6.918;2023-05-07T12:50:45;6.78;;;2.30;;
10450;SDS011;5273;51.290;6.918;2023-05-07T12:53:14;3.97;;;2.08;;
10450;SDS011;5273;51.290;6.918;2023-05-07T12:55:43;3.10;;;1.88;;
10450;SDS011;5273;51.290;6.918;2023-05-07T12:58:15;5.00;;;2.00;;
10450;SDS011;5273;51.290;6.918;2023-05-07T13:00:42;3.63;;;2.35;;
10450;SDS011;5273;51.290;6.918;2023-05-07T13:03:10;3.47;;;2.40;;
10450;SDS011;5273;51.290;6.918;2023-05-07T13:05:37;4.63;;;2.17;;
10450;SDS011;5273;51.290;6.918;2023-05-07T13:08:04;3.55;;;2.50;;
10450;SDS011;5273;51.290;6.918;2023-05-07T13:10:31;3.53;;;2.50;;
10450;SDS011;5273;51.290;6.918;2023-05-07T13:13:00;4.15;;;2.35;;
10450;SDS011;5273;51.290;6.918;2023-05-07T13:15:27;3.75;;;2.67;;
10450;SDS011;5273;51.290;6.918;2023-05-07T13:17:54;4.45;;;2.63;;
10450;SDS011;5273;51.290;6.918;2023-05-07T13:20:21;3.08;;;2.75;;
10450;SDS011;5273;51.290;6.918;2023-05-07T13:22:48;3.38;;;3.08;;
10450;SDS011;5273;51.290;6.918;2023-05-07T13:25:15;3.00;;;2.72;;
10450;SDS011;5273;51.290;6.918;2023-05-07T13:27:41;3.45;;;2.80;;
10450;SDS011;5273;51.290;6.918;2023-05-07T13:30:10;3.53;;;3.00;;
10450;SDS011;5273;51.290;6.918;2023-05-07T13:32:37;3.20;;;2.90;;
10450;SDS011;5273;51.290;6.918;2023-05-07T13:35:04;4.20;;;3.17;;
10450;SDS011;5273;51.290;6.918;2023-05-07T13:37:31;4.35;;;3.25;;
10450;SDS011;5273;51.290;6.918;2023-05-07T13:39:58;3.95;;;3.10;;
10450;SDS011;5273;51.290;6.918;2023-05-07T13:42:25;6.50;;;3.22;;
10450;SDS011;5273;51.290;6.918;2023-05-07T13:44:52;3.85;;;3.33;;
10450;SDS011;5273;51.290;6.918;2023-05-07T13:47:20;7.57;;;3.45;;
10450;SDS011;5273;51.290;6.918;2023-05-07T13:49:47;7.90;;;3.83;;
10450;SDS011;5273;51.290;6.918;2023-05-07T13:52:14;13.95;;;3.88;;
10450;SDS011;5273;51.290;6.918;2023-05-07T13:54:41;11.90;;;4.32;;
10450;SDS011;5273;51.290;6.918;2023-05-07T13:57:08;8.93;;;4.05;;
10450;SDS011;5273;51.290;6.918;2023-05-07T13:59:35;10.75;;;4.47;;
10450;SDS011;5273;51.290;6.918;2023-05-07T14:02:02;9.90;;;5.10;;
10450;SDS011;5273;51.290;6.918;2023-05-07T14:04:30;7.15;;;4.40;;
10450;SDS011;5273;51.290;6.918;2023-05-07T14:06:57;7.65;;;4.85;;
10450;SDS011;5273;51.290;6.918;2023-05-07T14:09:23;6.50;;;5.72;;
10450;SDS011;5273;51.290;6.918;2023-05-07T14:11:50;7.53;;;5.88;;
10450;SDS011;5273;51.290;6.918;2023-05-07T14:14:17;11.40;;;6.55;;
10450;SDS011;5273;51.290;6.918;2023-05-07T14:16:44;6.32;;;5.65;;
10450;SDS011;5273;51.290;6.918;2023-05-07T14:19:10;8.98;;;5.75;;
10450;SDS011;5273;51.290;6.918;2023-05-07T14:21:39;6.80;;;5.70;;
10450;SDS011;5273;51.290;6.918;2023-05-07T14:24:06;10.63;;;6.20;;
10450;SDS011;5273;51.290;6.918;2023-05-07T14:26:33;7.97;;;5.72;;
10450;SDS011;5273;51.290;6.918;2023-05-07T14:29:00;8.63;;;6.20;;
10450;SDS011;5273;51.290;6.918;2023-05-07T14:31:27;8.45;;;6.32;;
10450;SDS011;5273;51.290;6.918;2023-05-07T14:33:55;10.70;;;7.05;;
10450;SDS011;5273;51.290;6.918;2023-05-07T14:36:23;7.53;;;6.47;;
10450;SDS011;5273;51.290;6.918;2023-05-07T14:38:52;8.00;;;7.07;;
10450;SDS011;5273;51.290;6.918;2023-05-07T14:41:19;14.40;;;7.93;;
10450;SDS011;5273;51.290;6.918;2023-05-07T14:43:46;8.98;;;6.75;;
10450;SDS011;5273;51.290;6.918;2023-05-07T14:46:15;10.85;;;7.85;;
10450;SDS011;5273;51.290;6.918;2023-05-07T14:48:43;9.73;;;7.63;;
10450;SDS011;5273;51.290;6.918;2023-05-07T14:51:10;9.18;;;7.28;;
10450;SDS011;5273;51.290;6.918;2023-05-07T14:53:37;10.60;;;7.60;;
10450;SDS011;5273;51.290;6.918;2023-05-07T14:56:06;10.77;;;7.53;;
10450;SDS011;5273;51.290;6.918;2023-05-07T14:58:32;9.93;;;7.70;;
10450;SDS011;5273;51.290;6.918;2023-05-07T15:01:00;11.02;;;7.75;;
10450;SDS011;5273;51.290;6.918;2023-05-07T15:03:27;11.75;;;7.95;;
10450;SDS011;5273;51.290;6.918;2023-05-07T15:05:54;10.20;;;8.38;;
10450;SDS011;5273;51.290;6.918;2023-05-07T15:08:21;9.13;;;7.85;;
10450;SDS011;5273;51.290;6.918;2023-05-07T15:10:48;10.38;;;8.23;;
10450;SDS011;5273;51.290;6.918;2023-05-07T15:13:16;10.32;;;8.35;;
10450;SDS011;5273;51.290;6.918;2023-05-07T15:15:44;13.88;;;8.68;;
10450;SDS011;5273;51.290;6.918;2023-05-07T15:18:11;12.45;;;9.57;;
10450;SDS011;5273;51.290;6.918;2023-05-07T15:20:37;12.10;;;9.10;;
10450;SDS011;5273;51.290;6.918;2023-05-07T15:23:05;10.05;;;8.40;;
10450;SDS011;5273;51.290;6.918;2023-05-07T15:25:34;12.73;;;8.85;;
10450;SDS011;5273;51.290;6.918;2023-05-07T15:28:01;14.23;;;9.55;;